Terminal Aerodrome Forecast
Issued by NWS Bismarck, ND

Home | Current Version | Previous Version | Graphics & Text | Print | Product List | Glossary On
Versions: 1 2 3 4 5 6 7 8 9 10 11 12 13 14 15 16 17 18 19 20 21 22 23 24 25 26 27 28 29 30
000
FTUS43 KBIS 262342
TAFBIS
TAF
KBIS 262342Z 2700/2724 03009KT P6SM BKN080
     FM270200 02007KT P6SM VCTS BKN090CB
     FM270600 04005KT P6SM BKN015
     FM271200 03005KT 5SM BR BKN020
     FM271500 05006KT P6SM SCT200=

USA.gov is the U.S. government's official web portal to all federal, state and local government web resources and services.